Pagrindinis puslapis
METAR-TAF:

METAR-TAF

Oro uostai :

Kalmaras, Švedija

platuma: 56-44N, ilguma: 016-18E, Aukštis: 16 m

Dabartinis oras

Ataskaita buvo paskelbta 36 minutes, ne 20:50 UTC
Vėjas 4 kt iš Pietryčių
Temperatūra 15°C
Drėgmė 88%
Slėgis 1018 hPa
Matomumas 10 km arba daugiau

METAR: ESMQ 172050Z AUTO 13004KT 9999 NCD 15/13 Q1018

Laikas: 23:26 (21:26 UTC)

Prognozė

Ataskaita buvo paskelbta 6 valandos ir 56 minutes, ne 14:30 UTC
Prognozė galioja nuo 17 metu 15 UTC su 17 metu 18 UTC
Vėjas 10 kt iš Pietų
Matomumas 10 km arba daugiau
nėra debesų žemiau 1500 m ir nėra kamuolinių lietaus debesų

TAF: ESMQ 171430Z 1715/1718 17010KT CAVOK

Orai ataskaitas ir orų prognozės (METAR, TAF).

turimą stotys yra geltonos ir raudonos taškus žemėlapyje.

Perkelti pele per norėdami pamatyti stoties vardą.

Tada spustelėkite, norėdami matyti oro stebėjimo ir prognozės.

Norėdami pakeisti žemėlapį: spustelėkite ant žalios mygtukų su juodo kryžiaus žemyn,; žalią mygtuką su brūkšneliu, jei norite nutolinti; arba žalių rodyklių gretimoms žemėlapius.


METAR-TAF: